sensor_id;sensor_type;location;lat;lon;timestamp;temperature;humidity
29093;DHT22;16167;48.768;14.984;2023-09-30T00:00:38;15.20;2.30
29093;DHT22;16167;48.768;14.984;2023-09-30T00:03:06;15.20;1.00
29093;DHT22;16167;48.768;14.984;2023-09-30T00:05:36;15.20;1.00
29093;DHT22;16167;48.768;14.984;2023-09-30T00:08:04;15.20;1.00
29093;DHT22;16167;48.768;14.984;2023-09-30T00:10:33;15.20;1.00
29093;DHT22;16167;48.768;14.984;2023-09-30T00:13:02;15.20;1.00
29093;DHT22;16167;48.768;14.984;2023-09-30T00:15:30;15.20;1.00
29093;DHT22;16167;48.768;14.984;2023-09-30T00:17:58;15.20;1.00
29093;DHT22;16167;48.768;14.984;2023-09-30T00:20:26;15.20;1.00
29093;DHT22;16167;48.768;14.984;2023-09-30T00:22:55;15.10;1.00
29093;DHT22;16167;48.768;14.984;2023-09-30T00:25:23;15.20;1.00
29093;DHT22;16167;48.768;14.984;2023-09-30T00:27:52;15.20;1.00
29093;DHT22;16167;48.768;14.984;2023-09-30T00:30:20;15.20;1.00
29093;DHT22;16167;48.768;14.984;2023-09-30T00:32:48;15.20;6.70
29093;DHT22;16167;48.768;14.984;2023-09-30T00:35:16;15.20;1.00
29093;DHT22;16167;48.768;14.984;2023-09-30T00:37:44;15.20;1.00
29093;DHT22;16167;48.768;14.984;2023-09-30T00:40:14;15.30;3.60
29093;DHT22;16167;48.768;14.984;2023-09-30T00:42:42;15.30;1.80
29093;DHT22;16167;48.768;14.984;2023-09-30T00:45:10;15.30;4.30
29093;DHT22;16167;48.768;14.984;2023-09-30T00:47:39;15.20;3.60
29093;DHT22;16167;48.768;14.984;2023-09-30T00:50:07;15.20;9.40
29093;DHT22;16167;48.768;14.984;2023-09-30T00:52:38;15.20;5.10
29093;DHT22;16167;48.768;14.984;2023-09-30T00:55:06;15.20;8.30
29093;DHT22;16167;48.768;14.984;2023-09-30T00:57:39;15.20;10.60
29093;DHT22;16167;48.768;14.984;2023-09-30T01:00:07;15.20;19.30
29093;DHT22;16167;48.768;14.984;2023-09-30T01:02:39;15.20;11.80
29093;DHT22;16167;48.768;14.984;2023-09-30T01:05:07;15.20;11.90
29093;DHT22;16167;48.768;14.984;2023-09-30T01:07:36;15.20;15.50
29093;DHT22;16167;48.768;14.984;2023-09-30T01:10:05;15.20;15.90
29093;DHT22;16167;48.768;14.984;2023-09-30T01:12:35;15.20;18.70
29093;DHT22;16167;48.768;14.984;2023-09-30T01:15:06;15.20;15.20
29093;DHT22;16167;48.768;14.984;2023-09-30T01:17:35;15.20;28.10
29093;DHT22;16167;48.768;14.984;2023-09-30T01:20:04;15.20;35.80
29093;DHT22;16167;48.768;14.984;2023-09-30T01:22:35;15.20;38.80
29093;DHT22;16167;48.768;14.984;2023-09-30T01:25:03;15.20;31.40
29093;DHT22;16167;48.768;14.984;2023-09-30T01:27:32;15.20;50.40
29093;DHT22;16167;48.768;14.984;2023-09-30T01:30:01;15.20;55.40
29093;DHT22;16167;48.768;14.984;2023-09-30T01:32:29;15.20;52.20
29093;DHT22;16167;48.768;14.984;2023-09-30T01:34:57;15.20;52.70
29093;DHT22;16167;48.768;14.984;2023-09-30T01:37:26;15.20;59.60
29093;DHT22;16167;48.768;14.984;2023-09-30T01:39:55;15.20;64.80
29093;DHT22;16167;48.768;14.984;2023-09-30T01:42:23;15.20;64.00
29093;DHT22;16167;48.768;14.984;2023-09-30T01:44:52;15.20;59.00
29093;DHT22;16167;48.768;14.984;2023-09-30T01:47:21;15.20;65.40
29093;DHT22;16167;48.768;14.984;2023-09-30T01:49:49;15.20;76.70
29093;DHT22;16167;48.768;14.984;2023-09-30T01:52:17;15.20;74.70
29093;DHT22;16167;48.768;14.984;2023-09-30T01:54:45;15.20;78.20
29093;DHT22;16167;48.768;14.984;2023-09-30T01:57:14;15.20;79.60
29093;DHT22;16167;48.768;14.984;2023-09-30T01:59:42;15.20;80.50
29093;DHT22;16167;48.768;14.984;2023-09-30T02:02:10;15.20;75.90
29093;DHT22;16167;48.768;14.984;2023-09-30T02:04:38;15.20;78.30
29093;DHT22;16167;48.768;14.984;2023-09-30T02:07:06;15.20;83.80
29093;DHT22;16167;48.768;14.984;2023-09-30T02:09:35;15.10;84.50
29093;DHT22;16167;48.768;14.984;2023-09-30T02:12:03;15.10;75.90
29093;DHT22;16167;48.768;14.984;2023-09-30T02:14:32;15.10;76.70
29093;DHT22;16167;48.768;14.984;2023-09-30T02:17:00;15.10;79.80
29093;DHT22;16167;48.768;14.984;2023-09-30T02:19:28;15.10;69.90
29093;DHT22;16167;48.768;14.984;2023-09-30T02:21:58;15.10;71.10
29093;DHT22;16167;48.768;14.984;2023-09-30T02:24:26;15.10;74.20
29093;DHT22;16167;48.768;14.984;2023-09-30T02:26:54;15.10;69.20
29093;DHT22;16167;48.768;14.984;2023-09-30T02:29:22;15.00;78.20
29093;DHT22;16167;48.768;14.984;2023-09-30T02:31:52;15.00;78.70
29093;DHT22;16167;48.768;14.984;2023-09-30T02:34:21;15.00;77.30
29093;DHT22;16167;48.768;14.984;2023-09-30T02:36:50;14.90;77.70
29093;DHT22;16167;48.768;14.984;2023-09-30T02:39:18;14.90;70.90
29093;DHT22;16167;48.768;14.984;2023-09-30T02:41:47;14.90;69.20
29093;DHT22;16167;48.768;14.984;2023-09-30T02:44:17;14.80;67.30
29093;DHT22;16167;48.768;14.984;2023-09-30T02:46:44;14.80;71.20
29093;DHT22;16167;48.768;14.984;2023-09-30T02:49:14;14.70;73.40
29093;DHT22;16167;48.768;14.984;2023-09-30T02:51:42;14.70;69.90
29093;DHT22;16167;48.768;14.984;2023-09-30T02:54:11;14.70;69.10
29093;DHT22;16167;48.768;14.984;2023-09-30T02:56:42;14.60;68.70
29093;DHT22;16167;48.768;14.984;2023-09-30T02:59:13;14.50;73.20
29093;DHT22;16167;48.768;14.984;2023-09-30T03:01:41;14.50;70.30
29093;DHT22;16167;48.768;14.984;2023-09-30T03:04:10;14.40;74.20
29093;DHT22;16167;48.768;14.984;2023-09-30T03:06:40;14.30;72.30
29093;DHT22;16167;48.768;14.984;2023-09-30T03:09:09;14.30;81.80
29093;DHT22;16167;48.768;14.984;2023-09-30T03:11:39;14.30;87.50
29093;DHT22;16167;48.768;14.984;2023-09-30T03:14:09;14.30;82.30
29093;DHT22;16167;48.768;14.984;2023-09-30T03:16:37;14.30;87.40
29093;DHT22;16167;48.768;14.984;2023-09-30T03:19:07;14.30;81.20
29093;DHT22;16167;48.768;14.984;2023-09-30T03:21:35;14.40;86.70
29093;DHT22;16167;48.768;14.984;2023-09-30T03:24:04;14.40;89.90
29093;DHT22;16167;48.768;14.984;2023-09-30T03:26:34;14.50;91.70
29093;DHT22;16167;48.768;14.984;2023-09-30T03:29:02;14.50;90.00
29093;DHT22;16167;48.768;14.984;2023-09-30T03:31:32;14.50;91.10
29093;DHT22;16167;48.768;14.984;2023-09-30T03:34:00;14.60;91.90
29093;DHT22;16167;48.768;14.984;2023-09-30T03:36:28;14.60;91.70
29093;DHT22;16167;48.768;14.984;2023-09-30T03:38:56;14.60;95.70
29093;DHT22;16167;48.768;14.984;2023-09-30T03:41:27;14.60;94.70
29093;DHT22;16167;48.768;14.984;2023-09-30T03:43:55;14.70;94.90
29093;DHT22;16167;48.768;14.984;2023-09-30T03:46:24;14.70;94.90
29093;DHT22;16167;48.768;14.984;2023-09-30T03:48:52;14.70;93.50
29093;DHT22;16167;48.768;14.984;2023-09-30T03:51:22;14.80;93.30
29093;DHT22;16167;48.768;14.984;2023-09-30T03:53:51;14.80;93.50
29093;DHT22;16167;48.768;14.984;2023-09-30T03:56:20;14.90;91.30
29093;DHT22;16167;48.768;14.984;2023-09-30T03:58:50;14.90;91.60
29093;DHT22;16167;48.768;14.984;2023-09-30T04:01:19;15.00;86.10
29093;DHT22;16167;48.768;14.984;2023-09-30T04:03:47;15.10;80.10
29093;DHT22;16167;48.768;14.984;2023-09-30T04:06:15;15.10;80.50
29093;DHT22;16167;48.768;14.984;2023-09-30T04:08:43;15.10;78.90
29093;DHT22;16167;48.768;14.984;2023-09-30T04:11:11;15.20;74.00
29093;DHT22;16167;48.768;14.984;2023-09-30T04:13:44;15.20;71.00
29093;DHT22;16167;48.768;14.984;2023-09-30T04:16:13;15.10;74.40
29093;DHT22;16167;48.768;14.984;2023-09-30T04:18:42;15.00;70.00
29093;DHT22;16167;48.768;14.984;2023-09-30T04:21:10;15.00;73.40
29093;DHT22;16167;48.768;14.984;2023-09-30T04:23:38;14.90;76.60
29093;DHT22;16167;48.768;14.984;2023-09-30T04:26:06;14.80;72.70
29093;DHT22;16167;48.768;14.984;2023-09-30T04:28:36;14.70;76.60
29093;DHT22;16167;48.768;14.984;2023-09-30T04:31:04;14.70;78.70
29093;DHT22;16167;48.768;14.984;2023-09-30T04:33:36;14.60;82.80
29093;DHT22;16167;48.768;14.984;2023-09-30T04:36:04;14.50;81.00
29093;DHT22;16167;48.768;14.984;2023-09-30T04:38:35;14.40;82.70
29093;DHT22;16167;48.768;14.984;2023-09-30T04:41:04;14.40;83.80
29093;DHT22;16167;48.768;14.984;2023-09-30T04:43:34;14.30;84.00
29093;DHT22;16167;48.768;14.984;2023-09-30T04:46:04;14.20;80.50
29093;DHT22;16167;48.768;14.984;2023-09-30T04:48:34;14.10;78.20
29093;DHT22;16167;48.768;14.984;2023-09-30T04:51:07;14.10;85.10
29093;DHT22;16167;48.768;14.984;2023-09-30T04:53:36;14.00;86.10
29093;DHT22;16167;48.768;14.984;2023-09-30T04:56:04;14.00;89.10
29093;DHT22;16167;48.768;14.984;2023-09-30T04:58:32;13.90;84.80
29093;DHT22;16167;48.768;14.984;2023-09-30T05:01:00;13.90;86.00
29093;DHT22;16167;48.768;14.984;2023-09-30T05:03:28;13.90;93.20
29093;DHT22;16167;48.768;14.984;2023-09-30T05:05:56;13.90;92.20
29093;DHT22;16167;48.768;14.984;2023-09-30T05:08:26;13.90;90.60
29093;DHT22;16167;48.768;14.984;2023-09-30T05:10:56;13.90;86.70
29093;DHT22;16167;48.768;14.984;2023-09-30T05:13:24;13.90;91.90
29093;DHT22;16167;48.768;14.984;2023-09-30T05:15:52;13.90;90.30
29093;DHT22;16167;48.768;14.984;2023-09-30T05:18:20;13.90;85.80
29093;DHT22;16167;48.768;14.984;2023-09-30T05:20:48;13.90;82.70
29093;DHT22;16167;48.768;14.984;2023-09-30T05:23:16;13.90;83.20
29093;DHT22;16167;48.768;14.984;2023-09-30T05:25:46;13.90;77.70
29093;DHT22;16167;48.768;14.984;2023-09-30T05:28:14;13.90;77.10
29093;DHT22;16167;48.768;14.984;2023-09-30T05:30:42;13.90;79.90
29093;DHT22;16167;48.768;14.984;2023-09-30T05:33:12;13.90;80.30
29093;DHT22;16167;48.768;14.984;2023-09-30T05:35:41;13.90;82.40
29093;DHT22;16167;48.768;14.984;2023-09-30T05:38:09;13.90;79.20
29093;DHT22;16167;48.768;14.984;2023-09-30T05:40:39;13.90;78.80
29093;DHT22;16167;48.768;14.984;2023-09-30T05:43:10;14.00;87.50
29093;DHT22;16167;48.768;14.984;2023-09-30T05:45:40;14.00;79.80
29093;DHT22;16167;48.768;14.984;2023-09-30T05:48:16;14.00;83.70
29093;DHT22;16167;48.768;14.984;2023-09-30T05:50:44;14.10;84.50
29093;DHT22;16167;48.768;14.984;2023-09-30T05:53:13;14.20;83.70
29093;DHT22;16167;48.768;14.984;2023-09-30T05:55:41;14.20;91.70
29093;DHT22;16167;48.768;14.984;2023-09-30T05:58:12;14.30;89.60
29093;DHT22;16167;48.768;14.984;2023-09-30T06:00:40;14.40;89.10
29093;DHT22;16167;48.768;14.984;2023-09-30T06:03:09;14.50;84.60
29093;DHT22;16167;48.768;14.984;2023-09-30T06:05:39;14.60;82.50
29093;DHT22;16167;48.768;14.984;2023-09-30T06:08:08;14.80;78.00
29093;DHT22;16167;48.768;14.984;2023-09-30T06:10:37;14.80;74.30
29093;DHT22;16167;48.768;14.984;2023-09-30T06:13:11;14.90;81.30
29093;DHT22;16167;48.768;14.984;2023-09-30T06:15:39;14.90;80.70
29093;DHT22;16167;48.768;14.984;2023-09-30T06:18:09;15.00;84.00
29093;DHT22;16167;48.768;14.984;2023-09-30T06:20:38;15.00;81.00
29093;DHT22;16167;48.768;14.984;2023-09-30T06:23:08;15.00;73.00
29093;DHT22;16167;48.768;14.984;2023-09-30T06:25:37;15.10;74.60
29093;DHT22;16167;48.768;14.984;2023-09-30T06:28:06;15.20;80.60
29093;DHT22;16167;48.768;14.984;2023-09-30T06:30:36;15.30;82.20
29093;DHT22;16167;48.768;14.984;2023-09-30T06:33:05;15.50;80.70
29093;DHT22;16167;48.768;14.984;2023-09-30T06:35:34;15.70;75.70
29093;DHT22;16167;48.768;14.984;2023-09-30T06:38:05;15.80;72.20
29093;DHT22;16167;48.768;14.984;2023-09-30T06:40:34;16.00;67.10
29093;DHT22;16167;48.768;14.984;2023-09-30T06:43:06;16.10;68.50
29093;DHT22;16167;48.768;14.984;2023-09-30T06:45:37;16.20;60.50
29093;DHT22;16167;48.768;14.984;2023-09-30T06:48:09;16.30;60.30
29093;DHT22;16167;48.768;14.984;2023-09-30T06:50:40;16.40;59.40
29093;DHT22;16167;48.768;14.984;2023-09-30T06:53:11;16.40;55.30
29093;DHT22;16167;48.768;14.984;2023-09-30T06:55:39;16.40;55.60
29093;DHT22;16167;48.768;14.984;2023-09-30T06:58:07;16.40;56.80
29093;DHT22;16167;48.768;14.984;2023-09-30T07:00:38;16.40;53.30
29093;DHT22;16167;48.768;14.984;2023-09-30T07:03:06;16.50;54.90
29093;DHT22;16167;48.768;14.984;2023-09-30T07:05:36;16.60;44.10
29093;DHT22;16167;48.768;14.984;2023-09-30T07:08:04;16.70;43.70
29093;DHT22;16167;48.768;14.984;2023-09-30T07:10:32;16.80;49.60
29093;DHT22;16167;48.768;14.984;2023-09-30T07:13:01;16.90;43.50
29093;DHT22;16167;48.768;14.984;2023-09-30T07:15:29;17.10;37.90
29093;DHT22;16167;48.768;14.984;2023-09-30T07:17:59;17.30;38.90
29093;DHT22;16167;48.768;14.984;2023-09-30T07:20:27;17.60;33.50
29093;DHT22;16167;48.768;14.984;2023-09-30T07:22:55;17.80;22.90
29093;DHT22;16167;48.768;14.984;2023-09-30T07:25:43;17.90;19.10
29093;DHT22;16167;48.768;14.984;2023-09-30T07:28:11;18.00;15.70
29093;DHT22;16167;48.768;14.984;2023-09-30T07:30:40;18.00;8.20
29093;DHT22;16167;48.768;14.984;2023-09-30T07:33:09;18.00;4.70
29093;DHT22;16167;48.768;14.984;2023-09-30T07:35:37;18.00;2.60
29093;DHT22;16167;48.768;14.984;2023-09-30T07:38:06;17.90;1.00
29093;DHT22;16167;48.768;14.984;2023-09-30T07:40:34;17.90;1.00
29093;DHT22;16167;48.768;14.984;2023-09-30T07:43:03;17.90;1.00
29093;DHT22;16167;48.768;14.984;2023-09-30T07:45:31;18.00;1.00
29093;DHT22;16167;48.768;14.984;2023-09-30T07:47:59;18.00;1.00
29093;DHT22;16167;48.768;14.984;2023-09-30T07:50:31;18.10;1.00
29093;DHT22;16167;48.768;14.984;2023-09-30T07:53:00;18.10;1.00
29093;DHT22;16167;48.768;14.984;2023-09-30T07:55:28;18.10;1.00
29093;DHT22;16167;48.768;14.984;2023-09-30T07:57:56;18.10;1.00
29093;DHT22;16167;48.768;14.984;2023-09-30T08:00:26;18.10;1.00
29093;DHT22;16167;48.768;14.984;2023-09-30T08:02:53;18.20;1.00
29093;DHT22;16167;48.768;14.984;2023-09-30T08:05:21;18.20;1.00
29093;DHT22;16167;48.768;14.984;2023-09-30T08:07:51;18.40;1.00
29093;DHT22;16167;48.768;14.984;2023-09-30T08:10:19;18.50;1.00
29093;DHT22;16167;48.768;14.984;2023-09-30T08:12:47;18.60;1.00
29093;DHT22;16167;48.768;14.984;2023-09-30T08:15:16;18.70;1.00
29093;DHT22;16167;48.768;14.984;2023-09-30T08:17:45;18.80;1.00
29093;DHT22;16167;48.768;14.984;2023-09-30T08:20:13;18.90;1.00
29093;DHT22;16167;48.768;14.984;2023-09-30T08:22:41;18.90;1.00
29093;DHT22;16167;48.768;14.984;2023-09-30T08:25:11;19.10;1.00
29093;DHT22;16167;48.768;14.984;2023-09-30T08:27:39;19.20;1.00
29093;DHT22;16167;48.768;14.984;2023-09-30T08:30:08;19.20;1.00
29093;DHT22;16167;48.768;14.984;2023-09-30T08:32:37;19.20;1.00
29093;DHT22;16167;48.768;14.984;2023-09-30T08:35:05;19.10;1.00
29093;DHT22;16167;48.768;14.984;2023-09-30T08:37:33;19.20;1.00
29093;DHT22;16167;48.768;14.984;2023-09-30T08:40:02;19.40;1.00
29093;DHT22;16167;48.768;14.984;2023-09-30T08:42:33;19.60;1.00
29093;DHT22;16167;48.768;14.984;2023-09-30T08:45:02;19.70;1.00
29093;DHT22;16167;48.768;14.984;2023-09-30T08:47:32;19.80;1.00
29093;DHT22;16167;48.768;14.984;2023-09-30T08:50:02;19.90;1.00
29093;DHT22;16167;48.768;14.984;2023-09-30T08:52:33;19.90;1.00
29093;DHT22;16167;48.768;14.984;2023-09-30T08:55:06;20.00;1.00
29093;DHT22;16167;48.768;14.984;2023-09-30T08:57:36;20.20;1.00
29093;DHT22;16167;48.768;14.984;2023-09-30T09:00:06;20.30;1.00
29093;DHT22;16167;48.768;14.984;2023-09-30T09:02:37;20.40;1.00
29093;DHT22;16167;48.768;14.984;2023-09-30T09:05:05;20.50;1.00
29093;DHT22;16167;48.768;14.984;2023-09-30T09:07:34;20.70;1.00
29093;DHT22;16167;48.768;14.984;2023-09-30T09:10:02;20.80;1.00
29093;DHT22;16167;48.768;14.984;2023-09-30T09:12:31;21.00;1.00
29093;DHT22;16167;48.768;14.984;2023-09-30T09:15:01;21.20;1.00
29093;DHT22;16167;48.768;14.984;2023-09-30T09:17:39;21.20;1.00
29093;DHT22;16167;48.768;14.984;2023-09-30T09:20:08;21.20;1.00
29093;DHT22;16167;48.768;14.984;2023-09-30T09:22:38;21.30;1.00
29093;DHT22;16167;48.768;14.984;2023-09-30T09:25:06;21.80;1.00
29093;DHT22;16167;48.768;14.984;2023-09-30T09:27:34;22.00;1.00
29093;DHT22;16167;48.768;14.984;2023-09-30T09:32:53;22.60;1.00
29093;DHT22;16167;48.768;14.984;2023-09-30T09:35:23;22.90;1.00
29093;DHT22;16167;48.768;14.984;2023-09-30T09:37:55;23.20;1.00
29093;DHT22;16167;48.768;14.984;2023-09-30T09:40:23;23.50;1.00
29093;DHT22;16167;48.768;14.984;2023-09-30T09:42:51;23.80;1.00
29093;DHT22;16167;48.768;14.984;2023-09-30T09:45:21;23.90;1.00
29093;DHT22;16167;48.768;14.984;2023-09-30T09:47:50;23.80;1.00
29093;DHT22;16167;48.768;14.984;2023-09-30T09:50:21;23.60;1.00
29093;DHT22;16167;48.768;14.984;2023-09-30T09:52:50;23.50;1.00
29093;DHT22;16167;48.768;14.984;2023-09-30T09:55:18;23.20;1.00
29093;DHT22;16167;48.768;14.984;2023-09-30T09:57:46;22.90;1.00
29093;DHT22;16167;48.768;14.984;2023-09-30T10:00:15;22.60;1.00
29093;DHT22;16167;48.768;14.984;2023-09-30T10:02:45;22.50;1.00
29093;DHT22;16167;48.768;14.984;2023-09-30T10:05:14;22.50;1.00
29093;DHT22;16167;48.768;14.984;2023-09-30T10:07:45;22.50;1.00
29093;DHT22;16167;48.768;14.984;2023-09-30T10:10:15;22.50;1.00
29093;DHT22;16167;48.768;14.984;2023-09-30T10:12:44;22.70;1.00
29093;DHT22;16167;48.768;14.984;2023-09-30T10:18:01;23.50;1.00
29093;DHT22;16167;48.768;14.984;2023-09-30T10:20:31;24.10;1.00
29093;DHT22;16167;48.768;14.984;2023-09-30T10:23:19;24.60;1.00
29093;DHT22;16167;48.768;14.984;2023-09-30T10:25:47;25.10;1.00
29093;DHT22;16167;48.768;14.984;2023-09-30T10:28:38;25.80;1.00
29093;DHT22;16167;48.768;14.984;2023-09-30T10:31:08;26.00;1.00
29093;DHT22;16167;48.768;14.984;2023-09-30T10:33:36;25.90;1.00
29093;DHT22;16167;48.768;14.984;2023-09-30T10:36:04;25.30;1.00
29093;DHT22;16167;48.768;14.984;2023-09-30T10:38:40;24.90;1.00
29093;DHT22;16167;48.768;14.984;2023-09-30T10:41:07;24.50;1.00
29093;DHT22;16167;48.768;14.984;2023-09-30T10:43:36;24.20;1.00
29093;DHT22;16167;48.768;14.984;2023-09-30T10:46:29;23.90;1.00
29093;DHT22;16167;48.768;14.984;2023-09-30T10:49:00;23.80;1.00
29093;DHT22;16167;48.768;14.984;2023-09-30T10:51:44;23.90;1.00
29093;DHT22;16167;48.768;14.984;2023-09-30T10:54:15;24.20;1.00
29093;DHT22;16167;48.768;14.984;2023-09-30T10:56:50;24.70;1.00
29093;DHT22;16167;48.768;14.984;2023-09-30T10:59:19;24.90;1.00
29093;DHT22;16167;48.768;14.984;2023-09-30T11:01:47;24.60;1.00
29093;DHT22;16167;48.768;14.984;2023-09-30T11:04:15;24.40;1.00
29093;DHT22;16167;48.768;14.984;2023-09-30T11:06:44;24.10;1.00
29093;DHT22;16167;48.768;14.984;2023-09-30T11:09:16;24.00;1.00
29093;DHT22;16167;48.768;14.984;2023-09-30T11:11:45;23.60;1.00
29093;DHT22;16167;48.768;14.984;2023-09-30T11:14:19;23.20;1.00
29093;DHT22;16167;48.768;14.984;2023-09-30T11:16:47;22.80;1.00
29093;DHT22;16167;48.768;14.984;2023-09-30T11:19:15;22.60;1.00
29093;DHT22;16167;48.768;14.984;2023-09-30T11:21:43;22.50;1.00
29093;DHT22;16167;48.768;14.984;2023-09-30T11:24:12;22.70;1.00
29093;DHT22;16167;48.768;14.984;2023-09-30T11:26:41;23.60;1.00
29093;DHT22;16167;48.768;14.984;2023-09-30T11:29:10;23.90;1.00
29093;DHT22;16167;48.768;14.984;2023-09-30T11:31:39;23.70;1.00
29093;DHT22;16167;48.768;14.984;2023-09-30T11:34:07;23.50;1.00
29093;DHT22;16167;48.768;14.984;2023-09-30T11:36:37;23.10;1.00
29093;DHT22;16167;48.768;14.984;2023-09-30T11:39:05;22.70;1.00
29093;DHT22;16167;48.768;14.984;2023-09-30T11:41:36;22.40;1.00
29093;DHT22;16167;48.768;14.984;2023-09-30T11:44:09;22.10;1.00
29093;DHT22;16167;48.768;14.984;2023-09-30T11:46:47;21.90;1.00
29093;DHT22;16167;48.768;14.984;2023-09-30T11:49:26;21.70;1.00
29093;DHT22;16167;48.768;14.984;2023-09-30T11:51:55;21.60;1.00
29093;DHT22;16167;48.768;14.984;2023-09-30T11:54:27;21.40;1.00
29093;DHT22;16167;48.768;14.984;2023-09-30T11:56:56;21.30;1.00
29093;DHT22;16167;48.768;14.984;2023-09-30T11:59:25;21.20;1.00
29093;DHT22;16167;48.768;14.984;2023-09-30T12:01:53;21.00;1.00
29093;DHT22;16167;48.768;14.984;2023-09-30T12:04:38;20.90;1.00
29093;DHT22;16167;48.768;14.984;2023-09-30T12:07:07;20.90;1.00
29093;DHT22;16167;48.768;14.984;2023-09-30T12:09:35;20.80;1.00
29093;DHT22;16167;48.768;14.984;2023-09-30T12:12:05;20.70;1.00
29093;DHT22;16167;48.768;14.984;2023-09-30T12:14:38;20.70;1.00
29093;DHT22;16167;48.768;14.984;2023-09-30T12:17:06;20.80;1.00
29093;DHT22;16167;48.768;14.984;2023-09-30T12:19:38;20.80;1.00
29093;DHT22;16167;48.768;14.984;2023-09-30T12:22:07;20.90;1.00
29093;DHT22;16167;48.768;14.984;2023-09-30T12:24:37;21.10;1.00
29093;DHT22;16167;48.768;14.984;2023-09-30T12:27:06;21.60;1.00
29093;DHT22;16167;48.768;14.984;2023-09-30T12:29:34;22.30;1.00
29093;DHT22;16167;48.768;14.984;2023-09-30T12:32:06;22.60;1.00
29093;DHT22;16167;48.768;14.984;2023-09-30T12:34:35;22.80;1.00
29093;DHT22;16167;48.768;14.984;2023-09-30T12:37:03;22.90;1.00
29093;DHT22;16167;48.768;14.984;2023-09-30T12:39:31;22.80;1.00
29093;DHT22;16167;48.768;14.984;2023-09-30T12:42:00;22.70;1.00
29093;DHT22;16167;48.768;14.984;2023-09-30T12:44:35;22.50;1.00
29093;DHT22;16167;48.768;14.984;2023-09-30T12:47:04;22.40;1.00
29093;DHT22;16167;48.768;14.984;2023-09-30T12:49:33;22.10;1.00
29093;DHT22;16167;48.768;14.984;2023-09-30T12:52:01;21.90;1.00
29093;DHT22;16167;48.768;14.984;2023-09-30T12:54:29;21.80;1.00
29093;DHT22;16167;48.768;14.984;2023-09-30T12:56:57;21.70;1.00
29093;DHT22;16167;48.768;14.984;2023-09-30T12:59:25;21.50;1.00
29093;DHT22;16167;48.768;14.984;2023-09-30T13:01:53;21.40;1.00
29093;DHT22;16167;48.768;14.984;2023-09-30T13:04:23;21.30;1.00
29093;DHT22;16167;48.768;14.984;2023-09-30T13:06:53;21.20;1.00
29093;DHT22;16167;48.768;14.984;2023-09-30T13:09:22;21.10;1.00
29093;DHT22;16167;48.768;14.984;2023-09-30T13:11:50;21.00;1.00
29093;DHT22;16167;48.768;14.984;2023-09-30T13:14:18;20.90;1.00
29093;DHT22;16167;48.768;14.984;2023-09-30T13:16:46;20.90;1.00
29093;DHT22;16167;48.768;14.984;2023-09-30T13:19:15;20.90;1.00
29093;DHT22;16167;48.768;14.984;2023-09-30T13:21:48;20.80;1.00
29093;DHT22;16167;48.768;14.984;2023-09-30T13:24:17;20.90;1.00
29093;DHT22;16167;48.768;14.984;2023-09-30T13:26:45;20.80;1.00
29093;DHT22;16167;48.768;14.984;2023-09-30T13:29:13;20.90;1.00
29093;DHT22;16167;48.768;14.984;2023-09-30T13:31:42;20.90;1.00
29093;DHT22;16167;48.768;14.984;2023-09-30T13:34:12;20.90;1.00
29093;DHT22;16167;48.768;14.984;2023-09-30T13:36:42;21.00;1.00
29093;DHT22;16167;48.768;14.984;2023-09-30T13:39:10;20.90;1.00
29093;DHT22;16167;48.768;14.984;2023-09-30T13:41:41;20.80;1.00
29093;DHT22;16167;48.768;14.984;2023-09-30T13:44:09;20.70;1.00
29093;DHT22;16167;48.768;14.984;2023-09-30T13:46:38;20.50;1.00
29093;DHT22;16167;48.768;14.984;2023-09-30T13:49:06;20.40;1.00
29093;DHT22;16167;48.768;14.984;2023-09-30T13:51:34;20.30;1.00
29093;DHT22;16167;48.768;14.984;2023-09-30T13:54:03;20.30;1.00
29093;DHT22;16167;48.768;14.984;2023-09-30T13:56:31;20.30;1.00
29093;DHT22;16167;48.768;14.984;2023-09-30T13:59:00;20.40;1.00
29093;DHT22;16167;48.768;14.984;2023-09-30T14:01:28;20.40;1.00
29093;DHT22;16167;48.768;14.984;2023-09-30T14:03:56;20.40;1.00
29093;DHT22;16167;48.768;14.984;2023-09-30T14:06:25;20.30;1.00
29093;DHT22;16167;48.768;14.984;2023-09-30T14:08:53;20.30;1.00
29093;DHT22;16167;48.768;14.984;2023-09-30T14:11:22;20.30;1.00
29093;DHT22;16167;48.768;14.984;2023-09-30T14:13:50;20.20;1.00
29093;DHT22;16167;48.768;14.984;2023-09-30T14:16:19;20.20;1.00
29093;DHT22;16167;48.768;14.984;2023-09-30T14:18:48;20.20;1.00
29093;DHT22;16167;48.768;14.984;2023-09-30T14:21:16;20.00;1.00
29093;DHT22;16167;48.768;14.984;2023-09-30T14:23:45;20.00;1.00
29093;DHT22;16167;48.768;14.984;2023-09-30T14:26:13;19.90;1.00
29093;DHT22;16167;48.768;14.984;2023-09-30T14:28:41;19.90;1.00
29093;DHT22;16167;48.768;14.984;2023-09-30T14:31:09;19.90;1.00
29093;DHT22;16167;48.768;14.984;2023-09-30T14:33:39;20.00;1.00
29093;DHT22;16167;48.768;14.984;2023-09-30T14:36:07;20.00;1.00
29093;DHT22;16167;48.768;14.984;2023-09-30T14:38:35;20.10;1.00
29093;DHT22;16167;48.768;14.984;2023-09-30T14:41:06;20.20;1.00
29093;DHT22;16167;48.768;14.984;2023-09-30T14:43:34;20.20;1.00
29093;DHT22;16167;48.768;14.984;2023-09-30T14:46:02;20.20;1.00
29093;DHT22;16167;48.768;14.984;2023-09-30T14:48:30;20.20;1.00
29093;DHT22;16167;48.768;14.984;2023-09-30T14:50:59;20.20;1.00
29093;DHT22;16167;48.768;14.984;2023-09-30T14:53:27;20.20;1.00
29093;DHT22;16167;48.768;14.984;2023-09-30T14:55:56;20.10;1.00
29093;DHT22;16167;48.768;14.984;2023-09-30T14:58:24;20.10;1.00
29093;DHT22;16167;48.768;14.984;2023-09-30T15:00:52;20.00;1.00
29093;DHT22;16167;48.768;14.984;2023-09-30T15:03:20;19.90;1.00
29093;DHT22;16167;48.768;14.984;2023-09-30T15:05:48;19.90;1.00
29093;DHT22;16167;48.768;14.984;2023-09-30T15:08:26;19.80;1.00
29093;DHT22;16167;48.768;14.984;2023-09-30T15:10:53;19.70;1.00
29093;DHT22;16167;48.768;14.984;2023-09-30T15:13:21;19.60;1.00
29093;DHT22;16167;48.768;14.984;2023-09-30T15:15:49;19.50;1.00
29093;DHT22;16167;48.768;14.984;2023-09-30T15:18:17;19.40;1.00
29093;DHT22;16167;48.768;14.984;2023-09-30T15:20:45;19.30;1.00
29093;DHT22;16167;48.768;14.984;2023-09-30T15:23:13;19.20;1.00
29093;DHT22;16167;48.768;14.984;2023-09-30T15:25:43;19.10;1.00
29093;DHT22;16167;48.768;14.984;2023-09-30T15:28:11;19.00;1.00
29093;DHT22;16167;48.768;14.984;2023-09-30T15:30:40;18.80;1.00
29093;DHT22;16167;48.768;14.984;2023-09-30T15:33:08;18.70;1.00
29093;DHT22;16167;48.768;14.984;2023-09-30T15:35:36;18.60;1.00
29093;DHT22;16167;48.768;14.984;2023-09-30T15:38:04;18.50;1.00
29093;DHT22;16167;48.768;14.984;2023-09-30T15:40:33;18.40;1.00
29093;DHT22;16167;48.768;14.984;2023-09-30T15:43:19;18.40;1.00